Fredericktown, Ohio
Current Conditions -  °F | °C
As of 5:55 AM on Wednesday 22 Oct 2014 (Local Time) from K4I3 Reporting Station
Haze Haze  
Wind Chill: 40°   Ceiling: 1300
Heat Index: 45°   Visibility: 4mi
Dew Point: 43°   Wind: 8mph
Humidity: 93%   Direction: 310°NW
Pressure: 30.17"   Gusts: NA
Location:  40.48°N, 82.54°W
Report Text: K4I3 220955Z AUTO 31007KT 4SM BR SCT007 OVC013 07/06 A3017 RMK AO2
Loading
Personal Weather Stations






























Interactive Weather Map
Tropical Storm Tracking
New forecast layout! Learn more

10-Day Weather Forecast

Advertisements
Track Severe Weather on mobile